createdAt,value
2022-11-19T00:01:21.916Z,8.17
2022-11-19T00:03:52.710Z,8.77
2022-11-19T00:06:25.059Z,8.43
2022-11-19T00:08:52.537Z,8.17
2022-11-19T00:11:39.598Z,8.40
2022-11-19T00:14:07.030Z,8.50
2022-11-19T00:16:34.307Z,8.53
2022-11-19T00:19:03.619Z,8.57
2022-11-19T00:21:30.967Z,9.07
2022-11-19T00:23:58.672Z,8.70
2022-11-19T00:26:25.998Z,8.33
2022-11-19T00:28:53.361Z,8.57
2022-11-19T00:31:20.579Z,8.60
2022-11-19T00:33:50.695Z,8.23
2022-11-19T00:36:18.378Z,8.40
2022-11-19T00:38:45.856Z,8.40
2022-11-19T00:41:13.329Z,8.63
2022-11-19T00:43:46.953Z,9.00
2022-11-19T00:46:32.778Z,9.50
2022-11-19T00:49:00.682Z,8.33
2022-11-19T00:51:29.357Z,8.63
2022-11-19T00:53:56.567Z,8.73
2022-11-19T00:56:25.241Z,8.77
2022-11-19T00:58:52.776Z,8.40
2022-11-19T01:01:21.681Z,8.80
2022-11-19T01:03:49.426Z,9.30
2022-11-19T01:06:19.503Z,8.87
2022-11-19T01:08:50.523Z,8.57
2022-11-19T01:11:19.158Z,8.27
2022-11-19T01:13:46.408Z,9.27
2022-11-19T01:16:15.066Z,8.80
2022-11-19T01:19:01.191Z,9.47
2022-11-19T01:21:30.176Z,8.30
2022-11-19T01:23:57.904Z,9.00
2022-11-19T01:26:25.620Z,9.13
2022-11-19T01:28:53.426Z,8.97
2022-11-19T01:31:25.199Z,9.83
2022-11-19T01:33:52.438Z,8.70
2022-11-19T01:36:20.922Z,8.87
2022-11-19T01:38:51.776Z,9.70
2022-11-19T01:41:19.948Z,9.73
2022-11-19T01:43:51.096Z,9.13
2022-11-19T01:46:20.036Z,9.17
2022-11-19T01:49:03.291Z,8.80
2022-11-19T01:51:36.305Z,8.93
2022-11-19T01:54:11.246Z,8.97
2022-11-19T01:56:38.614Z,9.17
2022-11-19T01:59:11.288Z,8.93
2022-11-19T02:01:38.565Z,9.20
2022-11-19T02:04:08.029Z,8.97
2022-11-19T02:06:35.454Z,9.67
2022-11-19T02:09:02.667Z,9.70
2022-11-19T02:11:49.027Z,9.13
2022-11-19T02:14:22.317Z,9.43
2022-11-19T02:17:15.713Z,9.27
2022-11-19T02:20:00.467Z,9.40
2022-11-19T02:22:29.597Z,9.10
2022-11-19T02:25:26.012Z,9.53
2022-11-19T02:28:11.276Z,9.47
2022-11-19T02:30:42.434Z,8.63
2022-11-19T02:33:11.434Z,9.83
2022-11-19T02:35:42.860Z,9.80
2022-11-19T02:38:28.528Z,9.70
2022-11-19T02:40:58.587Z,9.37
2022-11-19T02:43:39.676Z,9.33
2022-11-19T02:46:12.813Z,10.03
2022-11-19T02:48:42.372Z,9.10
2022-11-19T02:51:10.015Z,9.43
2022-11-19T02:53:37.271Z,10.07
2022-11-19T02:56:36.372Z,10.17
2022-11-19T02:59:22.460Z,10.07
2022-11-19T03:02:08.770Z,9.50
2022-11-19T03:04:36.048Z,9.63
2022-11-19T03:07:07.772Z,10.10
2022-11-19T03:09:38.580Z,10.10
2022-11-19T03:12:08.960Z,9.47
2022-11-19T03:15:08.744Z,9.50
2022-11-19T03:17:51.034Z,10.27
2022-11-19T03:20:27.606Z,10.13
2022-11-19T03:22:58.020Z,9.80
2022-11-19T03:25:45.524Z,9.63
2022-11-19T03:28:14.190Z,9.97
2022-11-19T03:30:43.668Z,10.00
2022-11-19T03:33:29.044Z,10.83
2022-11-19T03:36:01.701Z,10.17
2022-11-19T03:38:31.404Z,10.43
2022-11-19T03:40:58.871Z,10.10
2022-11-19T03:43:28.502Z,10.93
2022-11-19T03:45:57.504Z,9.90
2022-11-19T03:48:26.337Z,10.13
2022-11-19T03:50:55.431Z,9.77
2022-11-19T03:53:23.082Z,9.87
2022-11-19T03:55:53.295Z,9.70
2022-11-19T03:58:24.147Z,9.90
2022-11-19T04:00:51.465Z,9.33
2022-11-19T04:03:18.791Z,9.30
2022-11-19T04:05:46.109Z,10.33
2022-11-19T04:08:32.319Z,10.20
2022-11-19T04:13:25.801Z,10.10
2022-11-19T04:15:53.006Z,10.13
2022-11-19T04:18:20.178Z,10.20
2022-11-19T04:20:47.355Z,10.60
2022-11-19T04:23:14.563Z,10.40
2022-11-19T04:25:46.632Z,10.60
2022-11-19T04:28:14.060Z,10.63
2022-11-19T04:30:41.280Z,10.27
2022-11-19T04:33:08.526Z,10.70
2022-11-19T04:35:35.744Z,9.97
2022-11-19T04:38:03.138Z,9.50
2022-11-19T04:40:30.305Z,10.00
2022-11-19T04:42:57.561Z,10.80
2022-11-19T04:45:24.722Z,10.23
2022-11-19T04:47:51.972Z,9.97
2022-11-19T04:50:19.187Z,9.37
2022-11-19T04:52:46.411Z,10.37
2022-11-19T04:55:13.864Z,9.67
2022-11-19T04:57:41.130Z,10.77
2022-11-19T05:00:09.074Z,10.27
2022-11-19T05:02:36.478Z,10.20
2022-11-19T05:05:03.792Z,11.10
2022-11-19T05:07:31.219Z,10.50
2022-11-19T05:09:58.489Z,10.27
2022-11-19T05:12:25.668Z,10.20
2022-11-19T05:14:53.062Z,10.53
2022-11-19T05:17:20.283Z,11.43
2022-11-19T05:19:47.440Z,11.13
2022-11-19T05:22:14.764Z,10.17
2022-11-19T05:24:42.012Z,10.07
2022-11-19T05:27:10.893Z,10.73
2022-11-19T05:29:38.053Z,10.93
2022-11-19T05:32:05.476Z,9.97
2022-11-19T05:34:32.764Z,9.70
2022-11-19T05:36:59.984Z,10.00
2022-11-19T05:39:45.981Z,10.43
2022-11-19T05:42:13.609Z,9.77
2022-11-19T05:44:40.824Z,9.90
2022-11-19T05:47:08.065Z,9.93
2022-11-19T05:49:35.275Z,10.77
2022-11-19T05:52:02.533Z,10.67
2022-11-19T05:54:29.814Z,11.03
2022-11-19T05:56:57.103Z,9.70
2022-11-19T05:59:24.251Z,10.50
2022-11-19T06:01:51.530Z,9.17
2022-11-19T06:04:18.687Z,11.43
2022-11-19T06:06:45.867Z,11.80
2022-11-19T06:09:13.130Z,12.37
2022-11-19T06:11:50.450Z,12.00
2022-11-19T06:14:18.758Z,48.93
2022-11-19T06:16:46.014Z,17.70
2022-11-19T06:19:13.487Z,26.10
2022-11-19T06:21:40.670Z,10.70
2022-11-19T06:24:07.973Z,9.70
2022-11-19T06:26:35.249Z,9.20
2022-11-19T06:29:03.003Z,9.60
2022-11-19T06:31:30.201Z,9.17
2022-11-19T06:33:57.473Z,9.17
2022-11-19T06:36:27.539Z,8.90
2022-11-19T06:38:55.000Z,9.70
2022-11-19T06:41:22.463Z,9.93
2022-11-19T06:43:49.810Z,9.43
2022-11-19T06:46:17.025Z,9.33
2022-11-19T06:48:44.211Z,10.20
2022-11-19T06:51:11.444Z,9.83
2022-11-19T06:53:39.551Z,17.00
2022-11-19T06:56:07.560Z,60.57
2022-11-19T06:58:34.898Z,14.20
2022-11-19T07:01:02.159Z,10.10
2022-11-19T07:03:29.402Z,10.50
2022-11-19T07:05:58.652Z,10.70
2022-11-19T07:08:26.028Z,10.77
2022-11-19T07:10:53.378Z,9.97
2022-11-19T07:13:20.660Z,10.93
2022-11-19T07:15:47.872Z,10.77
2022-11-19T07:18:15.170Z,10.80
2022-11-19T07:20:42.388Z,11.27
2022-11-19T07:23:13.212Z,11.77
2022-11-19T07:25:40.501Z,11.73
2022-11-19T07:28:09.313Z,11.73
2022-11-19T07:30:36.701Z,11.93
2022-11-19T07:33:04.056Z,11.43
2022-11-19T07:35:31.681Z,12.03
2022-11-19T07:37:58.953Z,12.07
2022-11-19T07:40:26.241Z,12.53
2022-11-19T07:42:53.495Z,12.47
2022-11-19T07:45:21.930Z,11.70
2022-11-19T07:47:49.676Z,11.83
2022-11-19T07:50:17.600Z,11.93
2022-11-19T07:52:45.034Z,11.30
2022-11-19T07:55:12.473Z,11.70
2022-11-19T07:57:39.677Z,11.33
2022-11-19T08:00:07.279Z,12.23
2022-11-19T08:02:40.298Z,11.90
2022-11-19T08:05:07.585Z,12.33
2022-11-19T08:07:34.934Z,12.13
2022-11-19T08:10:02.213Z,11.90
2022-11-19T08:12:29.807Z,12.17
2022-11-19T08:14:57.041Z,11.67
2022-11-19T08:17:43.063Z,11.90
2022-11-19T08:20:10.744Z,12.23
2022-11-19T08:22:40.562Z,11.57
2022-11-19T08:25:08.029Z,33.10
2022-11-19T08:27:35.343Z,14.00
2022-11-19T08:30:03.154Z,12.93
2022-11-19T08:32:30.546Z,11.97
2022-11-19T08:34:57.990Z,12.47
2022-11-19T08:37:25.330Z,12.23
2022-11-19T08:39:52.827Z,13.30
2022-11-19T08:42:58.491Z,12.53
2022-11-19T08:45:26.962Z,12.50
2022-11-19T08:47:55.159Z,13.07
2022-11-19T08:50:23.093Z,12.27
2022-11-19T08:52:57.397Z,13.10
2022-11-19T08:55:25.133Z,13.43
2022-11-19T08:57:52.358Z,13.20
2022-11-19T09:00:22.653Z,13.50
2022-11-19T09:02:49.953Z,13.37
2022-11-19T09:05:17.304Z,12.77
2022-11-19T09:07:44.682Z,13.43
2022-11-19T09:10:12.027Z,12.77
2022-11-19T09:12:39.217Z,12.37
2022-11-19T09:15:08.243Z,12.90
2022-11-19T09:17:35.936Z,12.60
2022-11-19T09:20:03.392Z,12.10
2022-11-19T09:22:31.376Z,12.20
2022-11-19T09:24:58.855Z,12.70
2022-11-19T09:27:26.137Z,12.47
2022-11-19T09:29:53.455Z,11.83
2022-11-19T09:32:25.157Z,12.83
2022-11-19T09:34:52.842Z,13.00
2022-11-19T09:37:20.255Z,13.07
2022-11-19T09:39:47.596Z,13.17
2022-11-19T09:42:31.939Z,12.90
2022-11-19T09:45:33.730Z,12.80
2022-11-19T09:48:26.319Z,13.70
2022-11-19T09:51:06.824Z,13.00
2022-11-19T09:53:50.446Z,13.47
2022-11-19T09:56:54.359Z,13.40
2022-11-19T09:59:54.274Z,12.63
2022-11-19T10:02:38.694Z,13.43
2022-11-19T10:05:21.722Z,13.50
2022-11-19T10:08:30.250Z,13.13
2022-11-19T10:11:27.517Z,13.47
2022-11-19T10:14:00.861Z,13.07
2022-11-19T10:16:44.161Z,13.80
2022-11-19T10:19:25.985Z,12.97
2022-11-19T10:22:11.578Z,13.20
2022-11-19T10:25:13.498Z,13.30
2022-11-19T10:27:45.647Z,12.93
2022-11-19T10:30:24.494Z,11.67
2022-11-19T10:36:46.694Z,11.87
2022-11-19T10:39:24.612Z,11.53
2022-11-19T10:42:27.325Z,10.77
2022-11-19T10:45:12.615Z,11.57
2022-11-19T10:48:09.769Z,10.50
2022-11-19T10:50:57.509Z,11.03
2022-11-19T10:53:42.559Z,11.07
2022-11-19T10:56:50.739Z,12.33
2022-11-19T10:59:36.888Z,10.13
2022-11-19T11:02:28.006Z,10.77
2022-11-19T11:09:40.870Z,10.13
2022-11-19T11:12:45.471Z,9.80
2022-11-19T11:15:25.698Z,8.70
2022-11-19T11:18:10.707Z,7.23
2022-11-19T11:20:40.124Z,7.87
2022-11-19T11:23:15.192Z,7.97
2022-11-19T11:26:11.200Z,8.33
2022-11-19T11:28:57.904Z,6.77
2022-11-19T11:31:45.100Z,6.80
2022-11-19T11:34:29.471Z,7.07
2022-11-19T11:36:57.468Z,6.60
2022-11-19T11:39:26.257Z,7.00
2022-11-19T11:42:11.884Z,6.63
2022-11-19T11:44:49.371Z,6.30
2022-11-19T11:47:40.150Z,5.70
2022-11-19T11:50:09.324Z,5.87
2022-11-19T11:52:47.685Z,6.40
2022-11-19T11:55:24.100Z,6.67
2022-11-19T11:57:52.891Z,6.30
2022-11-19T12:00:39.210Z,6.60
2022-11-19T12:03:07.823Z,5.80
2022-11-19T12:05:44.161Z,6.30
2022-11-19T12:08:17.319Z,6.07
2022-11-19T12:11:03.114Z,5.67
2022-11-19T12:13:30.332Z,6.53
2022-11-19T12:16:10.479Z,5.50
2022-11-19T12:18:43.667Z,4.37
2022-11-19T12:21:12.287Z,4.80
2022-11-19T12:23:40.029Z,4.83
2022-11-19T12:26:18.200Z,5.33
2022-11-19T12:29:03.797Z,5.87
2022-11-19T12:31:38.652Z,5.93
2022-11-19T12:34:20.232Z,5.60
2022-11-19T12:36:50.675Z,5.93
2022-11-19T12:39:30.331Z,6.80
2022-11-19T12:42:03.804Z,6.20
2022-11-19T12:44:43.214Z,5.93
2022-11-19T12:47:18.954Z,4.87
2022-11-19T12:50:03.437Z,5.13
2022-11-19T12:52:35.395Z,4.70
2022-11-19T12:55:04.305Z,4.97
2022-11-19T12:57:37.857Z,4.10
2022-11-19T13:00:14.401Z,3.80
2022-11-19T13:03:00.163Z,4.03
2022-11-19T13:05:33.431Z,3.60
2022-11-19T13:08:19.340Z,3.67
2022-11-19T13:10:49.271Z,3.50
2022-11-19T13:13:22.795Z,4.40
2022-11-19T13:16:01.200Z,3.73
2022-11-19T13:18:29.990Z,4.07
2022-11-19T13:21:01.465Z,3.50
2022-11-19T13:23:31.830Z,3.87
2022-11-19T13:26:04.128Z,4.73
2022-11-19T13:28:54.199Z,4.30
2022-11-19T13:31:29.530Z,4.47
2022-11-19T13:33:59.542Z,4.50
2022-11-19T13:36:33.197Z,4.80
2022-11-19T13:39:04.060Z,4.80
2022-11-19T13:41:36.321Z,4.90
2022-11-19T13:44:22.159Z,4.70
2022-11-19T13:46:59.719Z,5.73
2022-11-19T13:49:33.374Z,5.57
2022-11-19T13:52:04.214Z,5.00
2022-11-19T13:54:36.215Z,5.23
2022-11-19T13:57:05.145Z,5.00
2022-11-19T13:59:36.680Z,4.97
2022-11-19T14:02:09.778Z,4.70
2022-11-19T14:04:36.994Z,4.50
2022-11-19T14:07:07.069Z,4.60
2022-11-19T14:09:49.594Z,4.77
2022-11-19T14:12:23.046Z,5.20
2022-11-19T14:15:09.008Z,4.97
2022-11-19T14:18:07.202Z,4.73
2022-11-19T14:21:02.813Z,5.03
2022-11-19T14:24:00.639Z,4.90
2022-11-19T14:26:43.297Z,5.50
2022-11-19T14:29:19.899Z,5.60
2022-11-19T14:32:03.125Z,5.67
2022-11-19T14:34:31.809Z,4.83
2022-11-19T14:37:00.749Z,5.27
2022-11-19T14:39:29.499Z,5.17
2022-11-19T14:42:12.073Z,5.37
2022-11-19T14:44:39.290Z,5.37
2022-11-19T14:47:30.108Z,5.63
2022-11-19T14:50:01.002Z,5.40
2022-11-19T14:52:30.183Z,5.70
2022-11-19T14:54:57.363Z,5.30
2022-11-19T14:57:25.260Z,5.57
2022-11-19T14:59:54.635Z,5.60
2022-11-19T15:02:31.757Z,5.70
2022-11-19T15:04:59.003Z,5.70
2022-11-19T15:07:34.331Z,5.43
2022-11-19T15:10:10.574Z,5.67
2022-11-19T15:12:47.364Z,6.13
2022-11-19T15:15:20.651Z,6.27
2022-11-19T15:17:49.570Z,6.33
2022-11-19T15:20:16.725Z,6.40
2022-11-19T15:22:43.933Z,5.93
2022-11-19T15:25:27.773Z,6.23
2022-11-19T15:28:05.155Z,5.90
2022-11-19T15:30:37.831Z,6.20
2022-11-19T15:33:09.628Z,6.33
2022-11-19T15:35:55.758Z,6.30
2022-11-19T15:38:23.048Z,6.40
2022-11-19T15:40:55.883Z,6.63
2022-11-19T15:43:27.374Z,6.10
2022-11-19T15:45:56.537Z,6.33
2022-11-19T15:48:33.549Z,5.93
2022-11-19T15:51:01.601Z,6.63
2022-11-19T15:53:29.474Z,6.60
2022-11-19T15:55:58.639Z,6.47
2022-11-19T15:58:27.521Z,6.57
2022-11-19T16:00:55.373Z,6.63
2022-11-19T16:03:22.754Z,7.13
2022-11-19T16:06:09.483Z,7.90
2022-11-19T16:08:37.689Z,7.07
2022-11-19T16:11:24.080Z,7.60
2022-11-19T16:14:13.620Z,9.33
2022-11-19T16:16:59.766Z,8.70
2022-11-19T16:19:27.131Z,8.47
2022-11-19T16:21:57.473Z,8.80
2022-11-19T16:24:44.046Z,8.43
2022-11-19T16:27:13.024Z,9.10
2022-11-19T16:29:41.777Z,8.80
2022-11-19T16:32:09.107Z,9.27
2022-11-19T16:34:40.661Z,10.20
2022-11-19T16:37:10.672Z,10.47
2022-11-19T16:39:38.646Z,9.63
2022-11-19T16:42:18.447Z,10.70
2022-11-19T16:44:56.676Z,14.97
2022-11-19T16:47:27.000Z,35.67
2022-11-19T16:49:54.381Z,15.17
2022-11-19T16:52:47.736Z,14.70
2022-11-19T16:55:24.379Z,14.33
2022-11-19T16:57:53.590Z,14.47
2022-11-19T17:00:22.096Z,14.50
2022-11-19T17:02:50.765Z,14.20
2022-11-19T17:05:24.651Z,14.60
2022-11-19T17:07:53.024Z,14.40
2022-11-19T17:10:24.105Z,14.37
2022-11-19T17:12:53.310Z,14.77
2022-11-19T17:15:35.235Z,14.97
2022-11-19T17:18:14.879Z,16.57
2022-11-19T17:20:46.066Z,15.67
2022-11-19T17:23:19.573Z,15.43
2022-11-19T17:25:48.774Z,15.53
2022-11-19T17:28:18.823Z,14.90
2022-11-19T17:30:49.318Z,14.43
2022-11-19T17:33:17.907Z,16.30
2022-11-19T17:35:46.676Z,14.40
2022-11-19T17:38:24.052Z,14.13
2022-11-19T17:40:58.936Z,14.83
2022-11-19T17:43:48.490Z,15.63
2022-11-19T17:46:15.475Z,16.07
2022-11-19T17:48:44.565Z,15.30
2022-11-19T17:51:16.904Z,14.60
2022-11-19T17:53:44.150Z,15.57
2022-11-19T17:56:20.288Z,14.87
2022-11-19T17:58:47.809Z,14.77
2022-11-19T18:01:15.893Z,15.40
2022-11-19T18:03:42.915Z,15.37
2022-11-19T18:06:14.594Z,15.20
2022-11-19T18:08:42.247Z,15.30
2022-11-19T18:11:17.773Z,15.63
2022-11-19T18:13:45.458Z,15.70
2022-11-19T18:16:35.471Z,16.63
2022-11-19T18:19:02.438Z,17.10
2022-11-19T18:21:29.338Z,16.27
2022-11-19T18:23:56.166Z,17.10
2022-11-19T18:26:23.708Z,16.53
2022-11-19T18:28:51.111Z,17.10
2022-11-19T18:31:25.621Z,16.93
2022-11-19T18:33:53.300Z,17.63
2022-11-19T18:36:20.655Z,17.23
2022-11-19T18:38:47.695Z,17.80
2022-11-19T18:41:16.193Z,17.97
2022-11-19T18:44:01.624Z,19.17
2022-11-19T18:46:28.506Z,18.30
2022-11-19T18:48:55.381Z,17.97
2022-11-19T18:51:23.231Z,19.30
2022-11-19T18:53:50.252Z,18.37
2022-11-19T18:56:18.583Z,20.57
2022-11-19T18:58:45.871Z,20.43
2022-11-19T19:01:13.136Z,20.17
2022-11-19T19:03:40.328Z,20.90
2022-11-19T19:06:08.953Z,19.43
2022-11-19T19:08:36.310Z,18.97
2022-11-19T19:11:26.506Z,19.93
2022-11-19T19:13:54.279Z,18.57
2022-11-19T19:16:21.780Z,18.60
2022-11-19T19:19:07.217Z,19.47
2022-11-19T19:21:34.355Z,17.80
2022-11-19T19:24:01.355Z,18.90
2022-11-19T19:26:28.519Z,19.00
2022-11-19T19:28:56.030Z,19.00
2022-11-19T19:31:24.581Z,18.50
2022-11-19T19:33:52.268Z,19.33
2022-11-19T19:36:20.483Z,19.47
2022-11-19T19:38:47.986Z,20.03
2022-11-19T19:41:25.306Z,20.10
2022-11-19T19:43:53.791Z,19.93
2022-11-19T19:46:22.896Z,19.40
2022-11-19T19:48:52.025Z,19.20
2022-11-19T19:51:20.649Z,17.80
2022-11-19T19:53:48.305Z,19.00
2022-11-19T19:56:15.141Z,17.80
2022-11-19T19:58:46.236Z,18.53
2022-11-19T20:01:16.354Z,18.77
2022-11-19T20:03:44.258Z,18.90
2022-11-19T20:06:13.344Z,19.43
2022-11-19T20:08:41.367Z,19.27
2022-11-19T20:11:11.136Z,19.30
2022-11-19T20:13:39.830Z,19.87
2022-11-19T20:16:17.315Z,20.20
2022-11-19T20:18:48.398Z,19.17
2022-11-19T20:21:20.780Z,19.50
2022-11-19T20:23:47.754Z,20.83
2022-11-19T20:26:20.878Z,18.97
2022-11-19T20:28:48.874Z,19.43
2022-11-19T20:31:19.248Z,19.50
2022-11-19T20:33:50.658Z,19.17
2022-11-19T20:36:17.893Z,19.13
2022-11-19T20:38:48.360Z,17.90
2022-11-19T20:41:35.528Z,19.50
2022-11-19T20:44:22.760Z,18.63
2022-11-19T20:46:51.608Z,19.90
2022-11-19T20:49:20.509Z,18.43
2022-11-19T20:51:48.093Z,18.63
2022-11-19T20:54:15.480Z,17.90
2022-11-19T20:56:42.845Z,18.60
2022-11-19T20:59:11.184Z,19.07
2022-11-19T21:01:38.977Z,17.60
2022-11-19T21:04:06.144Z,17.93
2022-11-19T21:06:33.451Z,17.20
2022-11-19T21:09:00.543Z,17.30
2022-11-19T21:11:27.774Z,17.00
2022-11-19T21:13:54.710Z,17.20
2022-11-19T21:16:23.627Z,16.67
2022-11-19T21:18:51.611Z,17.13
2022-11-19T21:21:20.252Z,16.00
2022-11-19T21:23:47.496Z,16.33
2022-11-19T21:26:17.139Z,16.87
2022-11-19T21:28:51.933Z,16.27
2022-11-19T21:31:21.377Z,16.33
2022-11-19T21:33:48.637Z,17.37
2022-11-19T21:36:15.806Z,16.77
2022-11-19T21:38:42.754Z,17.70
2022-11-19T21:41:09.690Z,16.57
2022-11-19T21:43:37.311Z,17.07
2022-11-19T21:46:07.786Z,16.27
2022-11-19T21:51:25.167Z,17.00
2022-11-19T21:53:59.688Z,17.83
2022-11-19T21:56:35.281Z,17.70
2022-11-19T21:59:05.248Z,18.00
2022-11-19T22:01:32.293Z,17.27
2022-11-19T22:03:59.196Z,17.17
2022-11-19T22:06:26.487Z,16.83
2022-11-19T22:08:53.616Z,17.90
2022-11-19T22:11:29.427Z,17.40
2022-11-19T22:14:04.103Z,18.73
2022-11-19T22:16:33.605Z,18.07
2022-11-19T22:19:00.524Z,19.07
2022-11-19T22:21:29.373Z,18.50
2022-11-19T22:23:56.864Z,18.30
2022-11-19T22:26:23.810Z,20.23
2022-11-19T22:28:50.717Z,20.00
2022-11-19T22:31:17.733Z,19.10
2022-11-19T22:33:44.952Z,18.87
2022-11-19T22:36:12.068Z,18.53
2022-11-19T22:38:39.524Z,18.87
2022-11-19T22:41:09.103Z,18.60
2022-11-19T22:43:37.039Z,17.30
2022-11-19T22:46:04.418Z,18.07
2022-11-19T22:48:33.158Z,18.50
2022-11-19T22:51:06.268Z,18.00
2022-11-19T22:53:38.262Z,17.13
2022-11-19T22:56:07.837Z,16.63
2022-11-19T22:58:35.483Z,17.87
2022-11-19T23:01:03.229Z,17.90
2022-11-19T23:03:30.224Z,16.67
2022-11-19T23:05:59.220Z,18.73
2022-11-19T23:08:26.713Z,18.97
2022-11-19T23:11:02.019Z,17.63
2022-11-19T23:13:33.624Z,19.47
2022-11-19T23:16:00.522Z,18.77
2022-11-19T23:18:28.312Z,17.43
2022-11-19T23:21:00.945Z,18.67
2022-11-19T23:23:27.845Z,18.17
2022-11-19T23:25:59.732Z,17.53
2022-11-19T23:28:28.448Z,17.47
2022-11-19T23:30:55.694Z,17.00
2022-11-19T23:33:23.410Z,18.17
2022-11-19T23:35:50.205Z,17.03
2022-11-19T23:38:17.109Z,18.43
2022-11-19T23:40:44.306Z,17.33
2022-11-19T23:43:11.745Z,18.17
2022-11-19T23:45:38.534Z,17.50
2022-11-19T23:48:05.684Z,16.13
2022-11-19T23:50:32.576Z,17.33
2022-11-19T23:52:59.561Z,16.17
2022-11-19T23:55:26.404Z,16.10
2022-11-19T23:57:53.371Z,16.33
